Time;durP1;ratioP1;P1;durP2;ratioP2;P2;SDS_P1;SDS_P2;PMS_P1;PMS_P2;Temp;Humidity;BMP_temperature;BMP_pressure;BME280_temperature;BME280_humidity;BME280_pressure;Samples;Min_cycle;Max_cycle;Signal;HPM_P1;HPM_P2
2023/08/02 00:03:42;;;;;;;5.95;4.20;;;;;;;;;;9861253;29;20475;-69
2023/08/02 00:08:45;;;;;;;6.05;3.78;;;;;;;;;;9862406;29;20390;-70
2023/08/02 00:13:37;;;;;;;6.95;4.15;;;;;;;;;;9864301;29;20705;-70
2023/08/02 00:18:29;;;;;;;4.65;3.72;;;;;;;;;;9851408;29;20091;-68
2023/08/02 00:23:21;;;;;;;6.82;4.55;;;;;;;;;;9867778;29;20422;-69
2023/08/02 00:28:13;;;;;;;7.53;4.00;;;;;;;;;;9867987;29;20174;-69
2023/08/02 00:33:06;;;;;;;5.45;4.18;;;;;;;;;;9868503;29;20419;-67
2023/08/02 00:38:00;;;;;;;6.38;4.65;;;;;;;;;;9866134;29;20469;-67
2023/08/02 00:42:52;;;;;;;8.45;4.38;;;;;;;;;;9858636;29;20044;-67
2023/08/02 00:47:44;;;;;;;8.82;4.88;;;;;;;;;;9867041;29;20135;-69
2023/08/02 00:52:36;;;;;;;6.68;4.75;;;;;;;;;;9864434;29;20488;-68
2023/08/02 00:57:29;;;;;;;7.70;4.75;;;;;;;;;;9864511;29;20138;-71
2023/08/02 01:02:21;;;;;;;8.73;4.57;;;;;;;;;;9864470;29;20095;-68
2023/08/02 01:07:16;;;;;;;7.85;4.57;;;;;;;;;;9839476;29;20075;-66
2023/08/02 01:12:10;;;;;;;11.73;5.60;;;;;;;;;;9859803;29;20073;-69
2023/08/02 01:17:05;;;;;;;6.47;4.68;;;;;;;;;;9865172;29;20048;-68
2023/08/02 01:21:57;;;;;;;10.20;5.55;;;;;;;;;;9840162;29;20533;-68
2023/08/02 01:26:50;;;;;;;8.70;5.20;;;;;;;;;;9867274;29;20055;-69
2023/08/02 01:31:43;;;;;;;6.55;4.43;;;;;;;;;;9867877;29;20044;-71
2023/08/02 01:36:35;;;;;;;11.18;5.80;;;;;;;;;;9866428;29;20050;-67
2023/08/02 01:41:27;;;;;;;9.45;4.47;;;;;;;;;;9867077;29;20040;-71
2023/08/02 01:46:18;;;;;;;10.93;5.50;;;;;;;;;;9865775;29;20044;-68
2023/08/02 01:51:10;;;;;;;8.10;5.18;;;;;;;;;;9864547;29;20047;-70
2023/08/02 01:56:03;;;;;;;5.82;4.53;;;;;;;;;;9865280;29;20059;-70
2023/08/02 02:00:55;;;;;;;8.90;4.97;;;;;;;;;;9860542;29;20067;-70
2023/08/02 02:05:56;;;;;;;7.28;5.30;;;;;;;;;;9860359;28;20152;-69
2023/08/02 02:10:52;;;;;;;10.40;6.28;;;;;;;;;;9845570;29;20048;-68
2023/08/02 02:15:44;;;;;;;11.55;5.00;;;;;;;;;;9873920;29;20095;-69
2023/08/02 02:20:36;;;;;;;9.00;5.93;;;;;;;;;;9871053;29;20134;-70
2023/08/02 02:25:28;;;;;;;9.23;5.30;;;;;;;;;;9872925;29;20131;-70
2023/08/02 02:30:20;;;;;;;10.43;6.53;;;;;;;;;;9884876;29;20100;-69
2023/08/02 02:35:12;;;;;;;12.52;6.20;;;;;;;;;;9847048;29;20419;-68
2023/08/02 02:40:06;;;;;;;11.77;6.32;;;;;;;;;;9871768;29;20075;-68
2023/08/02 02:44:58;;;;;;;12.52;5.50;;;;;;;;;;9867564;29;20386;-69
2023/08/02 02:49:49;;;;;;;8.70;5.20;;;;;;;;;;9870689;29;20052;-69
2023/08/02 02:54:41;;;;;;;11.02;5.75;;;;;;;;;;9871656;29;20458;-68
2023/08/02 02:59:33;;;;;;;8.55;5.97;;;;;;;;;;9868290;29;20147;-69
2023/08/02 03:04:28;;;;;;;11.45;5.35;;;;;;;;;;9871473;29;20064;-68
2023/08/02 03:09:20;;;;;;;8.05;6.40;;;;;;;;;;9860661;29;20056;-69
2023/08/02 03:14:12;;;;;;;11.35;5.75;;;;;;;;;;9872855;29;20082;-69
2023/08/02 03:19:05;;;;;;;12.20;7.05;;;;;;;;;;9873429;29;20478;-68
2023/08/02 03:23:56;;;;;;;8.57;6.30;;;;;;;;;;9871092;29;20510;-69
2023/08/02 03:28:48;;;;;;;11.45;5.55;;;;;;;;;;9871926;29;20130;-68
2023/08/02 03:33:41;;;;;;;8.30;5.97;;;;;;;;;;9862794;29;20044;-69
2023/08/02 03:38:33;;;;;;;9.05;6.22;;;;;;;;;;9869163;29;20048;-67
2023/08/02 03:43:25;;;;;;;14.35;6.28;;;;;;;;;;9850262;29;20067;-68
2023/08/02 03:48:17;;;;;;;8.65;5.65;;;;;;;;;;9871549;29;20048;-68
2023/08/02 03:53:09;;;;;;;13.27;6.78;;;;;;;;;;9870255;29;20491;-69
2023/08/02 03:58:01;;;;;;;8.32;6.20;;;;;;;;;;9868503;29;20130;-68
2023/08/02 04:02:55;;;;;;;10.93;6.63;;;;;;;;;;9868710;29;20082;-71
2023/08/02 04:07:46;;;;;;;7.07;5.57;;;;;;;;;;9871748;29;20509;-69
2023/08/02 04:12:38;;;;;;;9.57;6.28;;;;;;;;;;9869283;29;20040;-69
2023/08/02 04:17:30;;;;;;;9.90;6.57;;;;;;;;;;9870213;29;20063;-71
2023/08/02 04:22:22;;;;;;;8.15;5.50;;;;;;;;;;9868966;29;20044;-70
2023/08/02 04:27:14;;;;;;;10.40;5.85;;;;;;;;;;9868933;29;20079;-69
2023/08/02 04:32:06;;;;;;;10.77;6.95;;;;;;;;;;9868934;29;20054;-69
2023/08/02 04:36:58;;;;;;;14.80;7.00;;;;;;;;;;9866616;29;20147;-68
2023/08/02 04:41:53;;;;;;;11.43;7.55;;;;;;;;;;9867773;29;20087;-70
2023/08/02 04:46:45;;;;;;;11.00;7.78;;;;;;;;;;9869397;29;20438;-70
2023/08/02 04:51:38;;;;;;;13.95;7.13;;;;;;;;;;9869546;29;20130;-69
2023/08/02 04:56:30;;;;;;;11.75;7.70;;;;;;;;;;9869337;29;20381;-70
2023/08/02 05:01:22;;;;;;;14.02;8.43;;;;;;;;;;9867740;29;20086;-69
2023/08/02 05:06:14;;;;;;;13.55;7.75;;;;;;;;;;9866403;29;20048;-69
2023/08/02 05:11:07;;;;;;;10.88;8.30;;;;;;;;;;9866971;29;20119;-70
2023/08/02 05:15:58;;;;;;;16.80;9.95;;;;;;;;;;9865534;29;20048;-68
2023/08/02 05:20:51;;;;;;;15.20;9.52;;;;;;;;;;9896717;29;20062;-70
2023/08/02 05:25:43;;;;;;;18.67;9.13;;;;;;;;;;9868161;29;20055;-69
2023/08/02 05:30:36;;;;;;;13.48;8.68;;;;;;;;;;9865567;29;20474;-70
2023/08/02 05:35:29;;;;;;;11.88;8.15;;;;;;;;;;9870695;29;20044;-70
2023/08/02 05:40:22;;;;;;;14.48;7.57;;;;;;;;;;9875224;29;20055;-70
2023/08/02 05:45:14;;;;;;;14.73;10.30;;;;;;;;;;9868605;29;20423;-70
2023/08/02 05:50:06;;;;;;;16.63;10.50;;;;;;;;;;9861468;29;20044;-68
2023/08/02 05:54:58;;;;;;;20.17;12.63;;;;;;;;;;9839113;29;20055;-71
2023/08/02 05:59:50;;;;;;;16.65;12.40;;;;;;;;;;9869615;29;20151;-69
2023/08/02 06:04:44;;;;;;;18.75;14.70;;;;;;;;;;9871874;29;20189;-70
2023/08/02 06:09:36;;;;;;;16.75;13.40;;;;;;;;;;9873504;29;20134;-70
2023/08/02 06:14:28;;;;;;;16.50;13.73;;;;;;;;;;9872829;29;20098;-70
2023/08/02 06:19:19;;;;;;;17.13;14.27;;;;;;;;;;9883549;29;20118;-70
2023/08/02 06:24:11;;;;;;;21.70;13.25;;;;;;;;;;9873221;29;20072;-70
2023/08/02 06:29:06;;;;;;;20.63;12.07;;;;;;;;;;9871569;29;20478;-71
2023/08/02 06:33:58;;;;;;;15.98;13.02;;;;;;;;;;9867163;29;20043;-71
2023/08/02 06:38:50;;;;;;;20.33;14.57;;;;;;;;;;9871721;29;20490;-71
2023/08/02 06:43:42;;;;;;;18.35;16.48;;;;;;;;;;9872885;29;20052;-71
2023/08/02 06:48:33;;;;;;;15.50;13.85;;;;;;;;;;9874385;29;20489;-71
2023/08/02 06:53:25;;;;;;;14.63;13.02;;;;;;;;;;9875663;29;20055;-72
2023/08/02 06:58:17;;;;;;;20.48;15.02;;;;;;;;;;9875299;29;20111;-71
2023/08/02 07:03:09;;;;;;;16.00;12.93;;;;;;;;;;9875560;29;20063;-71
2023/08/02 07:08:02;;;;;;;13.63;11.95;;;;;;;;;;9875216;29;20048;-71
2023/08/02 07:12:55;;;;;;;24.25;17.85;;;;;;;;;;9874632;28;20048;-72
2023/08/02 07:17:48;;;;;;;20.55;15.40;;;;;;;;;;9873976;29;20134;-72
2023/08/02 07:22:44;;;;;;;20.55;14.48;;;;;;;;;;9838831;29;20095;-74
2023/08/02 07:27:37;;;;;;;17.58;14.25;;;;;;;;;;9849117;29;20086;-74
2023/08/02 07:32:32;;;;;;;15.20;13.27;;;;;;;;;;9836703;29;20143;-71
2023/08/02 07:37:24;;;;;;;15.73;13.50;;;;;;;;;;9847887;29;20062;-71
2023/08/02 07:42:16;;;;;;;16.27;12.48;;;;;;;;;;9850582;29;20099;-72
2023/08/02 07:47:09;;;;;;;16.38;13.20;;;;;;;;;;9860398;29;20048;-72
2023/08/02 07:52:01;;;;;;;21.02;15.82;;;;;;;;;;9862091;29;20051;-72
2023/08/02 07:56:53;;;;;;;17.65;11.25;;;;;;;;;;9868431;29;20076;-73
2023/08/02 08:01:45;;;;;;;12.57;9.50;;;;;;;;;;9867608;29;20534;-71
2023/08/02 08:06:37;;;;;;;11.15;8.88;;;;;;;;;;9864808;29;20079;-72
2023/08/02 08:11:29;;;;;;;12.88;7.60;;;;;;;;;;9869241;29;20122;-74
2023/08/02 08:16:21;;;;;;;9.00;7.60;;;;;;;;;;9868426;29;20066;-72
2023/08/02 08:21:13;;;;;;;13.98;10.07;;;;;;;;;;9867949;29;20039;-73
2023/08/02 08:26:05;;;;;;;14.10;10.25;;;;;;;;;;9869944;28;20101;-74
2023/08/02 08:30:59;;;;;;;11.00;7.50;;;;;;;;;;9867237;29;20056;-72
2023/08/02 08:35:51;;;;;;;9.90;7.35;;;;;;;;;;9851970;29;20138;-72
2023/08/02 08:40:51;;;;;;;10.02;6.55;;;;;;;;;;9868559;29;20055;-73
2023/08/02 08:45:45;;;;;;;7.93;5.57;;;;;;;;;;9859995;29;20494;-72
2023/08/02 08:50:38;;;;;;;8.38;6.47;;;;;;;;;;9864700;28;20542;-71
2023/08/02 08:55:32;;;;;;;12.50;7.22;;;;;;;;;;9858538;29;20051;-73
2023/08/02 09:00:25;;;;;;;8.95;6.13;;;;;;;;;;9860624;29;20391;-71
2023/08/02 09:05:18;;;;;;;7.22;5.97;;;;;;;;;;9867093;29;20048;-73
2023/08/02 09:10:11;;;;;;;10.18;5.22;;;;;;;;;;9855953;29;20047;-74
2023/08/02 09:15:04;;;;;;;10.63;5.80;;;;;;;;;;9834905;29;20100;-71
2023/08/02 09:20:16;;;;;;;10.35;5.07;;;;;;;;;;9871334;29;20056;-73
2023/08/02 09:25:23;;;;;;;15.10;5.40;;;;;;;;;;9858512;29;20087;-72
2023/08/02 09:30:30;;;;;;;9.52;5.35;;;;;;;;;;9840970;29;20044;-72
2023/08/02 09:35:22;;;;;;;13.65;5.80;;;;;;;;;;9853484;29;20040;-73
2023/08/02 09:40:14;;;;;;;9.38;5.10;;;;;;;;;;9839795;29;20064;-73
2023/08/02 09:45:08;;;;;;;20.77;6.55;;;;;;;;;;9835153;29;20108;-73
2023/08/02 09:50:04;;;;;;;8.10;4.88;;;;;;;;;;9839192;29;20100;-73
2023/08/02 09:54:56;;;;;;;8.63;5.38;;;;;;;;;;9862029;29;20061;-73
2023/08/02 09:59:48;;;;;;;9.35;4.80;;;;;;;;;;9856044;29;20063;-73
2023/08/02 10:04:42;;;;;;;16.73;5.28;;;;;;;;;;9854477;29;20043;-74
2023/08/02 10:09:35;;;;;;;12.02;5.03;;;;;;;;;;9853932;29;20423;-74
2023/08/02 10:14:27;;;;;;;9.07;4.50;;;;;;;;;;9852343;29;20139;-73
2023/08/02 10:19:19;;;;;;;9.13;4.65;;;;;;;;;;9854941;29;20363;-74
2023/08/02 10:24:13;;;;;;;11.02;4.88;;;;;;;;;;9851249;29;20051;-74
2023/08/02 10:29:05;;;;;;;9.98;5.53;;;;;;;;;;9838933;29;20048;-74
2023/08/02 10:33:57;;;;;;;8.77;4.13;;;;;;;;;;9849342;29;20051;-73
2023/08/02 10:38:54;;;;;;;10.10;4.70;;;;;;;;;;9840742;29;20060;-74
2023/08/02 10:43:55;;;;;;;9.48;4.10;;;;;;;;;;9844768;29;20063;-73
2023/08/02 10:48:47;;;;;;;9.82;3.85;;;;;;;;;;9852305;29;20123;-74
2023/08/02 10:53:39;;;;;;;9.65;5.57;;;;;;;;;;9859611;29;20411;-74
2023/08/02 10:58:48;;;;;;;10.38;4.32;;;;;;;;;;9854186;29;20110;-75
2023/08/02 11:03:40;;;;;;;8.18;4.35;;;;;;;;;;9854132;29;20471;-74
2023/08/02 11:08:48;;;;;;;9.77;5.78;;;;;;;;;;9846429;29;20387;-73
2023/08/02 11:13:40;;;;;;;7.38;4.93;;;;;;;;;;9847647;29;20048;-74
2023/08/02 11:18:33;;;;;;;11.85;6.00;;;;;;;;;;9835690;29;20115;-74
2023/08/02 11:23:25;;;;;;;7.25;4.30;;;;;;;;;;9836429;29;20051;-73
2023/08/02 11:28:19;;;;;;;7.47;4.57;;;;;;;;;;9849345;29;20114;-73
2023/08/02 11:33:11;;;;;;;11.57;4.35;;;;;;;;;;9842918;29;20052;-76
2023/08/02 11:38:04;;;;;;;8.52;4.20;;;;;;;;;;9857902;29;20432;-74
2023/08/02 11:42:56;;;;;;;6.90;4.65;;;;;;;;;;9861058;29;20438;-74
2023/08/02 11:47:51;;;;;;;5.43;4.60;;;;;;;;;;9868829;29;20044;-74
2023/08/02 11:52:47;;;;;;;6.97;4.40;;;;;;;;;;9859337;29;20163;-74
2023/08/02 11:57:39;;;;;;;8.63;5.03;;;;;;;;;;9847350;29;20055;-73
2023/08/02 12:02:34;;;;;;;8.65;4.72;;;;;;;;;;9847941;29;20043;-74
2023/08/02 12:07:26;;;;;;;9.50;5.55;;;;;;;;;;9857397;29;20048;-73
2023/08/02 12:12:20;;;;;;;13.40;4.78;;;;;;;;;;9851493;29;20043;-72
2023/08/02 12:17:30;;;;;;;8.23;4.50;;;;;;;;;;9852657;29;20129;-74
2023/08/02 12:22:22;;;;;;;8.38;4.32;;;;;;;;;;9853880;29;20044;-74
2023/08/02 12:27:14;;;;;;;10.88;4.70;;;;;;;;;;9844890;29;20079;-72
2023/08/02 12:32:06;;;;;;;10.73;5.18;;;;;;;;;;9830921;29;20527;-72
2023/08/02 12:36:59;;;;;;;7.20;5.40;;;;;;;;;;9856904;29;20130;-71
2023/08/02 12:41:52;;;;;;;7.95;4.50;;;;;;;;;;9863748;28;20056;-73
2023/08/02 12:46:48;;;;;;;11.48;5.13;;;;;;;;;;9841457;29;20039;-73
2023/08/02 12:51:40;;;;;;;8.38;4.50;;;;;;;;;;9851346;29;20111;-71
2023/08/02 12:56:33;;;;;;;8.10;4.80;;;;;;;;;;9865282;29;20071;-71
2023/08/02 13:01:25;;;;;;;7.68;4.55;;;;;;;;;;9863246;29;20048;-66
2023/08/02 13:06:17;;;;;;;6.22;4.28;;;;;;;;;;9858272;29;20428;-66
2023/08/02 13:11:09;;;;;;;10.02;4.45;;;;;;;;;;9843971;29;20603;-65
2023/08/02 13:16:02;;;;;;;11.60;5.35;;;;;;;;;;9851978;29;20055;-66
2023/08/02 13:20:57;;;;;;;5.95;4.50;;;;;;;;;;9846562;29;20087;-65
2023/08/02 13:25:50;;;;;;;11.82;4.40;;;;;;;;;;9863550;29;20058;-64
2023/08/02 13:30:44;;;;;;;6.85;4.18;;;;;;;;;;9843543;29;20427;-73
2023/08/02 13:35:36;;;;;;;10.52;4.45;;;;;;;;;;9844315;28;20099;-75
2023/08/02 13:40:28;;;;;;;8.60;4.32;;;;;;;;;;9834347;29;20059;-74
2023/08/02 13:45:20;;;;;;;9.00;4.60;;;;;;;;;;9831175;29;20131;-76
2023/08/02 13:50:12;;;;;;;8.10;4.40;;;;;;;;;;9838968;29;20044;-82
2023/08/02 13:55:05;;;;;;;9.70;4.65;;;;;;;;;;9854725;29;20058;-80
2023/08/02 13:59:57;;;;;;;9.38;3.88;;;;;;;;;;9872247;29;20039;-81
2023/08/02 14:04:49;;;;;;;8.23;3.85;;;;;;;;;;9872287;29;20410;-80
2023/08/02 14:09:41;;;;;;;6.45;4.00;;;;;;;;;;9871094;29;20392;-80
2023/08/02 14:14:33;;;;;;;10.88;3.75;;;;;;;;;;9867511;29;20130;-80
2023/08/02 14:19:25;;;;;;;12.00;3.65;;;;;;;;;;9866421;29;20048;-81
2023/08/02 14:24:16;;;;;;;5.72;3.25;;;;;;;;;;9868428;29;20043;-81
2023/08/02 14:29:08;;;;;;;7.90;4.93;;;;;;;;;;9873189;29;20144;-80
2023/08/02 14:34:02;;;;;;;4.88;3.25;;;;;;;;;;9873472;29;20126;-81
2023/08/02 14:38:54;;;;;;;5.53;3.55;;;;;;;;;;9871572;29;20056;-79
2023/08/02 14:43:46;;;;;;;6.43;3.22;;;;;;;;;;9870940;29;20048;-80
2023/08/02 14:48:38;;;;;;;7.20;3.58;;;;;;;;;;9870807;29;20143;-80
2023/08/02 14:53:30;;;;;;;7.82;4.18;;;;;;;;;;9869904;29;20515;-80
2023/08/02 14:58:21;;;;;;;5.43;3.00;;;;;;;;;;9870322;29;20566;-81
2023/08/02 15:03:13;;;;;;;10.82;3.83;;;;;;;;;;9870111;29;20382;-79
2023/08/02 15:08:05;;;;;;;7.20;3.67;;;;;;;;;;9868813;29;20051;-79
2023/08/02 15:12:57;;;;;;;6.28;3.78;;;;;;;;;;9872441;29;20130;-79
2023/08/02 15:17:49;;;;;;;9.18;3.88;;;;;;;;;;9870089;29;20091;-79
2023/08/02 15:22:41;;;;;;;10.90;3.50;;;;;;;;;;9871377;29;20197;-80
2023/08/02 15:27:33;;;;;;;6.50;3.00;;;;;;;;;;9870523;29;20052;-80
2023/08/02 15:32:24;;;;;;;10.20;3.42;;;;;;;;;;9870255;29;20482;-80
2023/08/02 15:37:17;;;;;;;12.30;3.40;;;;;;;;;;9870661;29;20161;-77
2023/08/02 15:42:09;;;;;;;7.18;3.47;;;;;;;;;;9867962;29;20190;-78
2023/08/02 15:47:01;;;;;;;9.88;3.97;;;;;;;;;;9859133;29;20127;-78
2023/08/02 15:51:53;;;;;;;8.18;3.45;;;;;;;;;;9854974;29;20056;-74
2023/08/02 15:56:46;;;;;;;7.65;4.18;;;;;;;;;;9839753;29;20398;-77
2023/08/02 16:01:38;;;;;;;9.68;3.33;;;;;;;;;;9856723;29;20462;-74
2023/08/02 16:06:30;;;;;;;11.70;3.75;;;;;;;;;;9866999;29;20048;-76
2023/08/02 16:11:22;;;;;;;9.25;3.35;;;;;;;;;;9867453;29;20146;-76
2023/08/02 16:16:14;;;;;;;5.75;2.65;;;;;;;;;;9866158;29;20143;-76
2023/08/02 16:21:06;;;;;;;6.20;2.70;;;;;;;;;;9862798;29;20044;-75
2023/08/02 16:25:58;;;;;;;5.72;1.90;;;;;;;;;;9864579;29;20079;-76
2023/08/02 16:30:50;;;;;;;5.53;1.85;;;;;;;;;;9855586;29;20044;-75
2023/08/02 16:35:44;;;;;;;15.85;3.20;;;;;;;;;;9862058;29;20142;-74
2023/08/02 16:40:35;;;;;;;7.90;2.53;;;;;;;;;;9865776;29;20113;-75
2023/08/02 16:45:27;;;;;;;9.27;3.15;;;;;;;;;;9867703;29;20074;-74
2023/08/02 16:50:19;;;;;;;26.80;3.97;;;;;;;;;;9867683;29;20383;-74
2023/08/02 16:55:11;;;;;;;19.42;4.63;;;;;;;;;;9867853;28;20517;-79
2023/08/02 17:00:09;;;;;;;5.65;2.30;;;;;;;;;;9866875;29;20047;-78
2023/08/02 17:05:02;;;;;;;4.75;2.13;;;;;;;;;;9867191;29;20044;-74
2023/08/02 17:09:54;;;;;;;22.63;4.85;;;;;;;;;;9866514;29;20109;-76
2023/08/02 17:14:46;;;;;;;6.78;2.40;;;;;;;;;;9864874;29;20099;-79
2023/08/02 17:19:38;;;;;;;3.90;1.67;;;;;;;;;;9842371;29;20387;-76
2023/08/02 17:24:30;;;;;;;6.32;2.50;;;;;;;;;;9848562;29;20130;-77
2023/08/02 17:29:22;;;;;;;3.53;1.90;;;;;;;;;;9867598;29;20114;-79
2023/08/02 17:34:14;;;;;;;6.65;2.55;;;;;;;;;;9866755;29;20063;-80
2023/08/02 17:39:06;;;;;;;4.20;2.40;;;;;;;;;;9866284;29;20516;-79
2023/08/02 17:43:58;;;;;;;5.75;2.35;;;;;;;;;;9868727;29;20055;-78
2023/08/02 17:48:51;;;;;;;4.72;2.22;;;;;;;;;;9866822;29;20056;-80
2023/08/02 17:53:43;;;;;;;5.43;2.67;;;;;;;;;;9861177;29;20151;-81
2023/08/02 17:58:37;;;;;;;3.15;2.08;;;;;;;;;;9846857;29;20486;-80
2023/08/02 18:03:29;;;;;;;4.28;1.98;;;;;;;;;;9850377;29;20078;-80
2023/08/02 18:08:21;;;;;;;9.02;3.15;;;;;;;;;;9861900;29;20668;-81
2023/08/02 18:13:13;;;;;;;4.22;2.13;;;;;;;;;;9861351;29;20139;-81
2023/08/02 18:18:04;;;;;;;2.50;1.95;;;;;;;;;;9859836;29;20159;-81
2023/08/02 18:22:56;;;;;;;5.78;3.22;;;;;;;;;;9855015;29;20060;-76
2023/08/02 18:27:48;;;;;;;3.88;2.50;;;;;;;;;;9846206;29;20522;-74
2023/08/02 18:32:40;;;;;;;4.15;2.47;;;;;;;;;;9848967;29;20505;-77
2023/08/02 18:37:32;;;;;;;4.30;2.35;;;;;;;;;;9853382;29;20036;-77
2023/08/02 18:42:24;;;;;;;4.43;2.42;;;;;;;;;;9852778;29;20459;-75
2023/08/02 18:47:15;;;;;;;5.65;3.10;;;;;;;;;;9862291;29;20486;-77
2023/08/02 18:52:07;;;;;;;3.47;2.40;;;;;;;;;;9869116;29;20051;-74
2023/08/02 18:57:00;;;;;;;6.50;3.35;;;;;;;;;;9870124;29;20052;-77
2023/08/02 19:01:52;;;;;;;5.85;2.80;;;;;;;;;;9870870;29;20056;-77
2023/08/02 19:06:45;;;;;;;5.53;2.58;;;;;;;;;;9870525;29;20048;-76
2023/08/02 19:11:39;;;;;;;3.58;2.45;;;;;;;;;;9870470;28;20071;-77
2023/08/02 19:16:31;;;;;;;3.47;2.38;;;;;;;;;;9871109;29;20051;-78
2023/08/02 19:21:23;;;;;;;31.45;5.03;;;;;;;;;;9870884;29;20474;-77
2023/08/02 19:26:21;;;;;;;3.50;2.45;;;;;;;;;;9871781;29;20138;-82
2023/08/02 19:31:13;;;;;;;4.53;2.53;;;;;;;;;;9871251;29;20138;-85
2023/08/02 19:36:06;;;;;;;3.40;2.63;;;;;;;;;;9870434;29;20048;-81
2023/08/02 19:40:58;;;;;;;5.20;2.65;;;;;;;;;;9881768;29;20378;-82
2023/08/02 19:45:57;;;;;;;5.10;3.63;;;;;;;;;;9873309;28;20110;-82
2023/08/02 19:50:49;;;;;;;5.00;3.25;;;;;;;;;;9870058;28;20051;-82
2023/08/02 19:55:42;;;;;;;4.90;3.88;;;;;;;;;;9853068;29;20139;-83
2023/08/02 20:00:34;;;;;;;5.38;3.40;;;;;;;;;;9865614;29;20047;-86
2023/08/02 20:05:52;;;;;;;6.05;3.63;;;;;;;;;;9873101;29;20169;-76
2023/08/02 20:10:52;;;;;;;4.20;3.15;;;;;;;;;;9840433;29;20048;-76
2023/08/02 20:15:44;;;;;;;4.63;3.83;;;;;;;;;;9834342;29;20423;-75
2023/08/02 20:20:42;;;;;;;5.45;4.55;;;;;;;;;;9835103;29;20435;-75
2023/08/02 20:25:34;;;;;;;7.20;3.47;;;;;;;;;;9834653;29;20044;-76
2023/08/02 20:30:26;;;;;;;4.72;3.67;;;;;;;;;;9847927;29;20107;-76
2023/08/02 20:35:21;;;;;;;6.35;3.42;;;;;;;;;;9845258;29;20052;-75
2023/08/02 20:40:12;;;;;;;5.75;3.28;;;;;;;;;;9834142;29;20048;-75
2023/08/02 20:45:05;;;;;;;5.00;3.10;;;;;;;;;;9834211;29;20048;-75
2023/08/02 20:49:57;;;;;;;15.50;2.95;;;;;;;;;;9837800;29;20103;-77
2023/08/02 20:54:48;;;;;;;6.10;3.78;;;;;;;;;;9871168;29;20044;-76
2023/08/02 20:59:41;;;;;;;5.25;3.25;;;;;;;;;;9871167;29;20389;-77
2023/08/02 21:04:33;;;;;;;5.72;3.95;;;;;;;;;;9870702;29;20047;-77
2023/08/02 21:09:25;;;;;;;6.53;3.40;;;;;;;;;;9871322;29;20363;-74
2023/08/02 21:14:17;;;;;;;4.97;2.85;;;;;;;;;;9870607;29;20452;-77
2023/08/02 21:19:09;;;;;;;5.78;3.38;;;;;;;;;;9870400;29;20047;-76
2023/08/02 21:24:01;;;;;;;5.78;3.40;;;;;;;;;;9870362;29;20472;-77
2023/08/02 21:28:54;;;;;;;6.43;3.38;;;;;;;;;;9871237;29;20048;-76
2023/08/02 21:33:47;;;;;;;5.45;4.38;;;;;;;;;;9871065;29;20533;-78
2023/08/02 21:38:39;;;;;;;4.47;3.22;;;;;;;;;;9856199;29;20055;-78
2023/08/02 21:43:34;;;;;;;5.45;3.70;;;;;;;;;;9870926;29;20099;-77
2023/08/02 21:48:27;;;;;;;6.97;4.03;;;;;;;;;;9869003;29;20131;-75
2023/08/02 21:53:21;;;;;;;7.97;4.00;;;;;;;;;;9868732;29;20072;-78
2023/08/02 21:58:16;;;;;;;5.55;4.22;;;;;;;;;;9868595;29;20039;-76
2023/08/02 22:03:11;;;;;;;7.88;5.00;;;;;;;;;;9847080;29;20143;-78
2023/08/02 22:08:06;;;;;;;6.80;4.60;;;;;;;;;;9863011;29;20028;-89
2023/08/02 22:12:58;;;;;;;6.43;4.28;;;;;;;;;;9866635;29;20435;-89
2023/08/02 22:17:53;;;;;;;6.93;4.20;;;;;;;;;;9870601;29;20047;-88
2023/08/02 22:22:45;;;;;;;6.65;3.88;;;;;;;;;;9872120;28;20060;-89
2023/08/02 22:27:37;;;;;;;8.90;4.38;;;;;;;;;;9872904;29;20079;-89
2023/08/02 22:32:29;;;;;;;7.50;4.07;;;;;;;;;;9871683;29;20482;-89
2023/08/02 22:37:21;;;;;;;4.13;3.72;;;;;;;;;;9871010;29;20043;-90
2023/08/02 22:42:12;;;;;;;8.63;4.20;;;;;;;;;;9873527;29;20374;-90
2023/08/02 22:47:04;;;;;;;10.73;4.07;;;;;;;;;;9874921;29;20075;-88
2023/08/02 22:51:56;;;;;;;8.68;4.25;;;;;;;;;;9872495;29;20072;-88
2023/08/02 22:56:48;;;;;;;9.43;3.67;;;;;;;;;;9874757;29;20095;-89
2023/08/02 23:01:40;;;;;;;9.30;3.60;;;;;;;;;;9876684;29;20052;-89
2023/08/02 23:06:32;;;;;;;6.50;3.65;;;;;;;;;;9875377;29;20127;-89
2023/08/02 23:11:24;;;;;;;7.75;3.60;;;;;;;;;;9875131;29;20051;-89
2023/08/02 23:16:24;;;;;;;9.80;3.92;;;;;;;;;;9874170;29;20455;-88
2023/08/02 23:21:16;;;;;;;8.75;4.72;;;;;;;;;;9874783;29;20044;-88
2023/08/02 23:26:13;;;;;;;3.67;2.80;;;;;;;;;;9875516;29;20048;-88
2023/08/02 23:31:08;;;;;;;4.05;3.42;;;;;;;;;;9872885;29;20047;-88
2023/08/02 23:36:00;;;;;;;4.72;3.60;;;;;;;;;;9874068;29;20040;-89
2023/08/02 23:40:52;;;;;;;7.72;3.17;;;;;;;;;;9872548;29;20060;-88
2023/08/02 23:45:44;;;;;;;5.32;2.92;;;;;;;;;;9871834;29;20493;-88
2023/08/02 23:50:36;;;;;;;7.25;3.72;;;;;;;;;;9871118;29;20040;-89
2023/08/02 23:55:28;;;;;;;4.35;2.88;;;;;;;;;;9870609;28;20047;-87
